Caldwell, ID

5:26 PM MDT on September 21, 2017 (GMT -0600)
Caldwell Industrial

Weather History for KEUL - January, 2014

Change the Weather History Date:

Monday, January 6, 2014

  Actual Average (KBOI) Record (KBOI)
Temperature  
Mean Temperature 20 °F -  
Max Temperature 33 °F 32 °F 55 °F (1948)
Min Temperature 8 °F 17 °F -11 °F (2017)
Degree Days  
Heating Degree Days 44    
Moisture  
Dew Point 8 °F    
Average Humidity 62    
Maximum Humidity 73    
Minimum Humidity 44    
Precipitation  
Precipitation 0.00 in - - ()
Sea Level Pressure  
Sea Level Pressure 30.46 in    
Wind  
Wind Speed 4 mph (South)    
Max Wind Speed 13 mph    
Max Gust Speed -    
Visibility 10 miles    
Events      
Averages and records for this station are not official NWS values.
T = Trace of Precipitation, MM = Missing Value Source: NWS Daily Summary

Daily Weather History Graph

Daily Weather History Graph

Search for Another Location

Airport or City:

Trip Planner

Search our weather history database for the weather conditions in past years. The results will help you decide how hot, cold, wet, or windy it might be!

Date:

Astronomy

Jan. 06, 2014 Rise Set
Actual Time 8:19 AM MST 5:25 PM MST
Civil Twilight 7:47 AM MST 5:57 PM MST
Nautical Twilight 7:11 AM MST 6:33 PM MST
Astronomical Twilight 6:36 AM MST 7:08 PM MST
Moon 11:25 AM MST (1/6) No Moon Set
Length of Visible Light 10h 10m
Length of Day
9h 05m
Waxing Crescent, 35% of the Moon is Illuminated
Jan 6
Waxing Crescent
Jan 7
First Quarter
Jan 15
Full
Jan 23
Last Quarter
Jan 30
New

Hourly Weather History & Observations

Time (MST) Temp. Windchill Dew Point Humidity Pressure Visibility Wind Dir Wind Speed Gust Speed Precip Events Conditions
12:15 AM 14.0 °F - 5.0 °F 67% 30.54 in 10.0 mi Calm Calm - N/A   Clear
12:35 AM 12.2 °F - 3.2 °F 67% 30.53 in 10.0 mi Calm Calm - N/A   Clear
12:55 AM 14.0 °F - 6.8 °F 73% 30.53 in 10.0 mi Calm Calm - N/A   Clear
1:15 AM 10.4 °F 4.0 °F 3.2 °F 73% 30.53 in 10.0 mi ENE 3.5 mph - N/A   Clear
1:35 AM 10.4 °F 0.8 °F 1.4 °F 67% 30.52 in 10.0 mi NE 5.8 mph - N/A   Clear
1:55 AM 10.4 °F 0.8 °F 1.4 °F 67% 30.53 in 10.0 mi ENE 5.8 mph - N/A   Clear
2:15 AM 12.2 °F 2.9 °F 3.2 °F 67% 30.52 in 10.0 mi East 5.8 mph - N/A   Clear
2:35 AM 12.2 °F 4.3 °F 3.2 °F 67% 30.53 in 10.0 mi ESE 4.6 mph - N/A   Clear
2:55 AM 10.4 °F 2.2 °F 3.2 °F 73% 30.53 in 10.0 mi SE 4.6 mph - N/A   Clear
3:15 AM 12.2 °F 6.1 °F 5.0 °F 73% 30.54 in 10.0 mi South 3.5 mph - N/A   Clear
3:35 AM 14.0 °F 8.2 °F 6.8 °F 73% 30.54 in 10.0 mi South 3.5 mph - N/A   Clear
3:55 AM 14.0 °F 8.2 °F 5.0 °F 67% 30.54 in 10.0 mi SSE 3.5 mph - N/A   Clear
4:15 AM 12.2 °F - 1.4 °F 62% 30.54 in 10.0 mi Calm Calm - N/A   Clear
4:35 AM 8.6 °F -1.3 °F -2.2 °F 62% 30.55 in 10.0 mi ENE 5.8 mph - N/A   Clear
4:55 AM 8.6 °F -1.3 °F -0.4 °F 67% 30.53 in 10.0 mi East 5.8 mph - N/A   Clear
5:15 AM 10.4 °F 0.8 °F 3.2 °F 73% 30.53 in 10.0 mi East 5.8 mph - N/A   Clear
5:35 AM 12.2 °F 0.7 °F 3.2 °F 67% 30.53 in 10.0 mi ESE 8.1 mph - N/A   Clear
5:55 AM 12.2 °F 6.1 °F 1.4 °F 62% 30.53 in 10.0 mi ESE 3.5 mph - N/A   Clear
6:15 AM 12.2 °F - 3.2 °F 67% 30.54 in 10.0 mi Calm Calm - N/A   Clear
6:35 AM 12.2 °F - 1.4 °F 62% 30.54 in 10.0 mi Calm Calm - N/A   Clear
6:55 AM 10.4 °F 4.0 °F 1.4 °F 67% 30.54 in 10.0 mi East 3.5 mph - N/A   Clear
7:15 AM 10.4 °F 2.2 °F -0.4 °F 62% 30.53 in 10.0 mi East 4.6 mph - N/A   Clear
7:35 AM 8.6 °F -1.3 °F -0.4 °F 67% 30.53 in 10.0 mi ENE 5.8 mph - N/A   Clear
7:55 AM 8.6 °F -1.3 °F -0.4 °F 67% 30.53 in 10.0 mi East 5.8 mph - N/A   Clear
8:15 AM 8.6 °F 2.0 °F -0.4 °F 67% 30.53 in 10.0 mi ENE 3.5 mph - N/A   Clear
8:35 AM 10.4 °F - -0.4 °F 62% 30.54 in 10.0 mi Calm Calm - N/A   Clear
8:55 AM 10.4 °F 4.0 °F 1.4 °F 67% 30.55 in 10.0 mi ESE 3.5 mph - N/A   Clear
9:15 AM 10.4 °F - 1.4 °F 67% 30.55 in 10.0 mi Calm Calm - N/A   Clear
9:35 AM 15.8 °F - 6.8 °F 68% 30.56 in 10.0 mi Calm Calm - N/A   Clear
9:55 AM 15.8 °F - 6.8 °F 68% 30.55 in 10.0 mi Calm Calm - N/A   Clear
10:15 AM 17.6 °F - 6.8 °F 63% 30.55 in 10.0 mi Calm Calm - N/A   Clear
10:35 AM 19.4 °F - 8.6 °F 63% 30.55 in 10.0 mi Calm Calm - N/A   Clear
10:55 AM 23.0 °F - 10.4 °F 59% 30.55 in 10.0 mi Calm Calm - N/A   Clear
11:15 AM 26.6 °F 15.7 °F 10.4 °F 51% 30.54 in 10.0 mi SSE 12.7 mph - N/A   Clear
11:35 AM 26.6 °F 18.2 °F 12.2 °F 55% 30.53 in 10.0 mi South 8.1 mph - N/A   Clear
11:55 AM 28.4 °F 21.2 °F 12.2 °F 51% 30.52 in 10.0 mi SSE 6.9 mph - N/A   Clear
12:15 PM 28.4 °F 19.1 °F 12.2 °F 51% 30.51 in 10.0 mi SSE 10.4 mph - N/A   Clear
12:35 PM 30.2 °F 20.8 °F 12.2 °F 47% 30.50 in 10.0 mi SSE 11.5 mph - N/A   Clear
12:55 PM 30.2 °F 21.3 °F 12.2 °F 47% 30.49 in 10.0 mi SSE 10.4 mph - N/A   Clear
1:15 PM 32.0 °F 24.2 °F 14.0 °F 48% 30.47 in 10.0 mi South 9.2 mph - N/A   Clear
1:35 PM 32.0 °F 24.2 °F 14.0 °F 48% 30.45 in 10.0 mi SSE 9.2 mph - N/A   Clear
1:55 PM 32.0 °F 25.6 °F 14.0 °F 48% 30.44 in 10.0 mi South 6.9 mph - N/A   Clear
2:15 PM 33.8 °F 27.0 °F 14.0 °F 44% 30.43 in 10.0 mi South 8.1 mph - N/A   Clear
2:35 PM 33.8 °F 28.6 °F 14.0 °F 44% 30.42 in 10.0 mi South 5.8 mph - N/A   Clear
2:55 PM 32.0 °F 24.8 °F 15.8 °F 51% 30.42 in 10.0 mi WNW 8.1 mph - N/A   Clear
3:15 PM 28.4 °F 20.4 °F 15.8 °F 59% 30.41 in 10.0 mi NW 8.1 mph - N/A   Clear
3:35 PM 26.6 °F 17.5 °F 14.0 °F 59% 30.41 in 10.0 mi NW 9.2 mph - N/A   Clear
3:55 PM 26.6 °F 17.5 °F 14.0 °F 59% 30.41 in 10.0 mi NW 9.2 mph - N/A   Clear
4:15 PM 26.6 °F 16.8 °F 12.2 °F 55% 30.40 in 10.0 mi WNW 10.4 mph - N/A   Clear
4:35 PM 24.8 °F 17.9 °F 12.2 °F 59% 30.40 in 10.0 mi NW 5.8 mph - N/A   Clear
4:55 PM 24.8 °F 19.1 °F 12.2 °F 59% 30.39 in 10.0 mi NW 4.6 mph - N/A   Clear
5:15 PM 24.8 °F 16.9 °F 12.2 °F 59% 30.38 in 10.0 mi West 6.9 mph - N/A   Clear
5:35 PM 24.8 °F 16.9 °F 10.4 °F 54% 30.38 in 10.0 mi WNW 6.9 mph - N/A   Clear
5:55 PM 23.0 °F 14.7 °F 10.4 °F 59% 30.37 in 10.0 mi West 6.9 mph - N/A   Clear
6:15 PM 23.0 °F 18.4 °F 12.2 °F 63% 30.36 in 10.0 mi WNW 3.5 mph - N/A   Clear
6:35 PM 23.0 °F 17.0 °F 10.4 °F 59% 30.36 in 10.0 mi West 4.6 mph - N/A   Clear
6:55 PM 21.2 °F 13.6 °F 12.2 °F 68% 30.36 in 10.0 mi West 5.8 mph - N/A   Clear
7:15 PM 21.2 °F 16.4 °F 10.4 °F 63% 30.36 in 10.0 mi WNW 3.5 mph - N/A   Clear
7:35 PM 21.2 °F 14.9 °F 10.4 °F 63% 30.35 in 10.0 mi WNW 4.6 mph - N/A   Clear
7:55 PM 21.2 °F 14.9 °F 10.4 °F 63% 30.35 in 10.0 mi WSW 4.6 mph - N/A   Clear
8:15 PM 21.2 °F 14.9 °F 10.4 °F 63% 30.35 in 10.0 mi West 4.6 mph - N/A   Clear
8:35 PM 21.2 °F 14.9 °F 10.4 °F 63% 30.35 in 10.0 mi WSW 4.6 mph - N/A   Clear
8:55 PM 21.2 °F 16.4 °F 10.4 °F 63% 30.34 in 10.0 mi SW 3.5 mph - N/A   Clear
9:15 PM 21.2 °F 16.4 °F 12.2 °F 68% 30.33 in 10.0 mi SW 3.5 mph - N/A   Clear
9:35 PM 21.2 °F 16.4 °F 12.2 °F 68% 30.33 in 10.0 mi SW 3.5 mph - N/A   Clear
9:55 PM 21.2 °F - 12.2 °F 68% 30.33 in 10.0 mi Calm Calm - N/A   Clear
10:15 PM 21.2 °F - 10.4 °F 63% 30.32 in 10.0 mi Calm Calm - N/A   Clear
10:35 PM 21.2 °F - 10.4 °F 63% 30.32 in 10.0 mi Calm Calm - N/A   Clear
10:55 PM 19.4 °F - 10.4 °F 68% 30.32 in 10.0 mi Calm Calm - N/A   Clear
11:15 PM 19.4 °F - 10.4 °F 68% 30.31 in 10.0 mi Calm Calm - N/A   Clear
11:35 PM 19.4 °F - 10.4 °F 68% 30.31 in 9.0 mi Calm Calm - N/A   Clear
11:55 PM 19.4 °F - 10.4 °F 68% 30.29 in 10.0 mi Calm Calm - N/A   Clear